Startpagina
METAR-TAF:

METAR-TAF

Vliegvelden :

Vliegbasis Gilze-Rijen

Gilze-Rijen, Nederland

breedte: 51-34N, lengte: 004-56E, hoogte: 15 m

Actueel weer

Dit bericht is 24 minuten geleden gemaakt, om 08:25 UTC
Wind 8 kt uit het zuiden, variërend tussen het oostzuidoosten en het zuidzuidwesten
Temperatuur 7°C
Vochtigheid 87%
Druk 1020 hPa
Zicht 10 km of meer
Geheel bewolkt op 4900 ft
lichte regen

METAR: EHGR 270825Z AUTO 17008KT 120V200 9999 -RA OVC049 07/05 Q1020 BLU

Tijdstip: 09:49 (08:49 UTC)


TAF: ontbreekt

Waarnemingen en weersverwachtingen van meer dan 4000 vliegvelden (METAR en TAF).

De beschikbare stations zijn de gele en rode punten op de kaart.

Ga met uw muis naar het station om de naam te zien.

Klik dan om waarnemingen en weersverwachtingen te zien.

kaart wijzigen: klik op de groene knoppen met een zwart kruis om in te zoomen, op de groene knop met een streepje om uit te zoomen of op de groene pijlen voor aangrenzende kaarten.


METAR-TAF: